Time;durP1;ratioP1;P1;durP2;ratioP2;P2;SDS_P1;SDS_P2;PMS_P1;PMS_P2;Temp;Humidity;BMP_temperature;BMP_pressure;BME280_temperature;BME280_humidity;BME280_pressure;Samples;Min_cycle;Max_cycle;Signal;HPM_P1;HPM_P2
2021/06/03 05:39:40;;;;;;;4.10;2.20;;;;;;;16.56;45.98;100861.87;1593544;88;21725;-70
2021/06/03 05:42:09;;;;;;;4.43;2.17;;;;;;;16.68;44.75;100872.22;1589238;88;21831;-71
2021/06/03 05:44:38;;;;;;;4.12;2.30;;;;;;;16.72;44.86;100867.31;1592933;88;21848;-69
2021/06/03 05:47:04;;;;;;;4.87;1.93;;;;;;;16.76;44.52;100867.02;1592187;88;21028;-69
2021/06/03 05:49:31;;;;;;;4.77;2.30;;;;;;;16.84;44.89;100871.75;1602894;88;22166;-69
2021/06/03 05:52:02;;;;;;;4.47;2.10;;;;;;;16.99;44.86;100862.65;1597124;88;21821;-69
2021/06/03 05:54:30;;;;;;;4.30;2.47;;;;;;;17.07;43.80;100863.87;1599918;88;21115;-69
2021/06/03 05:56:57;;;;;;;5.03;2.30;;;;;;;17.07;43.80;100863.87;1593121;88;21696;-69
2021/06/03 05:59:25;;;;;;;6.03;2.87;;;;;;;17.13;43.76;100860.01;1593737;88;21756;-69
2021/06/03 06:02:05;;;;;;;5.10;2.30;;;;;;;17.15;44.38;100867.83;1594178;88;21188;-69
2021/06/03 06:06:50;;;;;;;5.47;2.03;;;;;;;17.35;44.25;100869.66;1592954;88;21097;-68
2021/06/03 06:09:19;;;;;;;3.70;2.30;;;;;;;17.38;42.71;100858.81;1593848;87;21145;-68
2021/06/03 06:11:47;;;;;;;5.23;2.33;;;;;;;17.36;43.63;100879.90;1591469;88;21598;-69
2021/06/03 06:14:15;;;;;;;6.37;2.17;;;;;;;17.37;44.03;100873.39;1590114;88;21148;-69
2021/06/03 06:16:43;;;;;;;3.47;2.37;;;;;;;17.43;42.93;100864.12;1597665;88;21138;-69
2021/06/03 06:19:10;;;;;;;2.93;1.90;;;;;;;17.45;42.89;100866.54;1594410;88;21079;-69
2021/06/03 06:21:39;;;;;;;4.90;2.13;;;;;;;17.42;43.47;100859.82;1595626;88;21354;-68
2021/06/03 06:24:06;;;;;;;5.60;2.30;;;;;;;17.47;43.42;100869.20;1593553;88;21212;-69
2021/06/03 06:26:33;;;;;;;2.80;2.00;;;;;;;17.53;42.94;100860.45;1599067;87;21157;-68
2021/06/03 06:29:02;;;;;;;5.27;2.30;;;;;;;17.58;42.72;100859.82;1594384;88;21097;-70
2021/06/03 06:31:29;;;;;;;3.90;2.20;;;;;;;17.61;42.66;100865.73;1592596;88;21066;-70
2021/06/03 06:33:57;;;;;;;5.97;1.90;;;;;;;17.67;41.43;100864.53;1592756;88;21170;-72
2021/06/03 06:36:24;;;;;;;3.03;1.70;;;;;;;17.72;41.86;100863.10;1592978;88;21621;-69
2021/06/03 06:38:52;;;;;;;4.30;2.10;;;;;;;17.81;42.18;100865.41;1591681;88;21043;-69
2021/06/03 06:41:18;;;;;;;4.53;2.00;;;;;;;17.94;41.53;100870.03;1591377;88;22197;-70
2021/06/03 06:43:45;;;;;;;3.27;2.43;;;;;;;18.07;40.69;100867.65;1592479;88;21110;-69
2021/06/03 06:46:12;;;;;;;5.37;2.00;;;;;;;18.10;40.16;100869.20;1594405;88;21569;-69
2021/06/03 06:48:40;;;;;;;3.53;1.80;;;;;;;18.15;39.78;100860.17;1591404;88;21431;-69
2021/06/03 06:51:08;;;;;;;6.10;2.30;;;;;;;18.25;39.66;100850.51;1605860;88;21036;-70
2021/06/03 06:53:35;;;;;;;4.03;1.90;;;;;;;18.33;39.78;100856.58;1600509;88;21157;-68
2021/06/03 06:56:02;;;;;;;4.17;2.00;;;;;;;18.42;39.66;100864.21;1591117;88;21118;-69
2021/06/03 06:58:29;;;;;;;5.53;2.27;;;;;;;18.48;38.71;100856.80;1577763;88;21051;-68
2021/06/03 07:00:57;;;;;;;4.53;2.03;;;;;;;18.49;39.89;100865.16;1595904;88;21139;-69
2021/06/03 07:03:24;;;;;;;5.73;1.90;;;;;;;18.59;39.72;100860.08;1594167;88;21123;-69
2021/06/03 07:05:51;;;;;;;4.00;1.90;;;;;;;18.65;39.05;100856.17;1594812;88;21811;-71
2021/06/03 07:08:18;;;;;;;3.50;2.10;;;;;;;18.68;39.51;100859.63;1594555;88;21549;-69
2021/06/03 07:10:45;;;;;;;3.40;2.00;;;;;;;18.70;38.43;100852.81;1588993;88;21232;-69
2021/06/03 07:13:12;;;;;;;4.17;1.87;;;;;;;18.71;38.93;100858.47;1570010;88;21103;-70
2021/06/03 07:15:38;;;;;;;5.20;2.13;;;;;;;18.72;38.56;100864.17;1593407;88;21076;-68
2021/06/03 07:18:07;;;;;;;6.30;2.10;;;;;;;18.77;37.87;100851.63;1597272;87;48830;-71
2021/06/03 07:20:34;;;;;;;3.77;1.93;;;;;;;18.81;38.68;100858.03;1595572;88;21632;-69
2021/06/03 07:23:05;;;;;;;5.30;1.90;;;;;;;18.86;37.91;100851.95;1598683;88;21394;-71
2021/06/03 07:25:35;;;;;;;7.30;2.08;;;;;;;18.91;38.83;100858.59;1603701;88;21130;-70
2021/06/03 07:28:04;;;;;;;4.25;1.90;;;;;;;19.01;39.00;100859.47;1592591;88;21076;-70
2021/06/03 07:30:31;;;;;;;5.10;2.23;;;;;;;19.09;38.46;100862.26;1598896;88;21699;-69
2021/06/03 07:33:00;;;;;;;3.40;1.93;;;;;;;19.17;37.53;100872.90;1611599;88;21082;-73
2021/06/03 07:35:28;;;;;;;5.33;2.20;;;;;;;19.19;37.45;100869.34;1588209;88;22206;-70
2021/06/03 07:37:56;;;;;;;4.23;1.73;;;;;;;19.18;37.75;100871.25;1578986;88;21727;-70
2021/06/03 07:40:30;;;;;;;3.27;1.93;;;;;;;19.24;37.40;100866.50;1592839;88;21131;-70
2021/06/03 07:42:57;;;;;;;3.07;2.10;;;;;;;19.27;36.90;100861.82;1603457;88;21177;-70
2021/06/03 07:45:27;;;;;;;3.90;2.03;;;;;;;19.24;36.47;100862.44;1593303;88;21044;-68
2021/06/03 07:47:59;;;;;;;3.47;1.87;;;;;;;19.20;37.29;100857.39;1589796;88;21170;-69
2021/06/03 07:50:27;;;;;;;4.87;1.80;;;;;;;19.25;38.48;100861.34;1600770;88;21632;-70
2021/06/03 07:52:54;;;;;;;5.10;1.93;;;;;;;19.42;37.58;100862.02;1569505;88;21161;-69
2021/06/03 07:55:21;;;;;;;3.87;2.10;;;;;;;19.56;36.07;100862.73;1546590;90;21151;-70
2021/06/03 07:57:51;;;;;;;3.90;1.90;;;;;;;19.62;36.77;100870.19;1560077;90;21540;-70
2021/06/03 08:00:19;;;;;;;3.33;1.80;;;;;;;19.65;35.66;100864.18;1560698;90;21137;-71
2021/06/03 08:02:46;;;;;;;4.40;1.60;;;;;;;19.65;36.13;100872.31;1600038;88;21108;-69
2021/06/03 08:05:18;;;;;;;3.93;1.90;;;;;;;19.65;36.37;100856.84;1596838;88;21075;-70
2021/06/03 08:07:45;;;;;;;3.87;2.02;;;;;;;19.66;35.99;100864.41;1593680;88;21551;-69
2021/06/03 08:10:16;;;;;;;3.60;1.70;;;;;;;19.70;36.07;100850.48;1592904;88;20984;-70
2021/06/03 08:12:43;;;;;;;4.28;2.02;;;;;;;19.79;36.64;100851.33;1594920;88;21016;-71
2021/06/03 08:15:13;;;;;;;3.20;1.93;;;;;;;20.00;35.12;100852.92;1596186;88;21519;-72
2021/06/03 08:17:41;;;;;;;6.53;2.00;;;;;;;20.18;35.44;100866.02;1604522;88;21106;-70
2021/06/03 08:20:12;;;;;;;5.27;1.90;;;;;;;20.25;34.05;100847.36;1594571;88;21133;-69
2021/06/03 08:22:39;;;;;;;3.87;1.95;;;;;;;20.31;34.31;100850.17;1591015;88;21039;-71
2021/06/03 08:25:08;;;;;;;3.10;1.93;;;;;;;20.31;34.67;100866.45;1587937;89;21023;-69
2021/06/03 08:27:34;;;;;;;3.60;2.00;;;;;;;20.22;34.37;100873.75;1596944;88;21119;-70
2021/06/03 08:30:02;;;;;;;3.17;1.70;;;;;;;20.10;34.60;100874.37;1593752;88;21706;-71
2021/06/03 08:32:29;;;;;;;4.20;1.97;;;;;;;20.13;35.13;100868.85;1594523;88;21165;-69
2021/06/03 08:34:56;;;;;;;3.63;1.80;;;;;;;20.31;34.11;100865.66;1598230;87;21678;-71
2021/06/03 08:37:24;;;;;;;3.57;1.97;;;;;;;20.33;34.08;100857.42;1591724;88;21214;-70
2021/06/03 08:39:51;;;;;;;3.37;1.70;;;;;;;20.31;34.09;100872.44;1588202;88;21682;-69
2021/06/03 08:42:20;;;;;;;5.20;1.87;;;;;;;20.25;33.97;100872.34;1598705;88;21076;-69
2021/06/03 08:44:47;;;;;;;3.67;1.70;;;;;;;20.17;33.56;100849.50;1598862;88;21169;-69
2021/06/03 08:47:16;;;;;;;3.83;2.10;;;;;;;20.09;33.82;100871.39;1596761;88;21588;-69
2021/06/03 08:49:43;;;;;;;4.40;1.97;;;;;;;20.04;33.91;100866.66;1588902;88;21140;-69
2021/06/03 08:52:10;;;;;;;8.07;2.27;;;;;;;20.01;34.46;100871.37;1599580;88;21561;-69
2021/06/03 08:54:39;;;;;;;3.27;1.90;;;;;;;19.98;34.27;100880.13;1603485;88;20998;-70
2021/06/03 08:57:11;;;;;;;4.50;1.70;;;;;;;19.93;34.82;100871.56;1592595;88;21969;-69
2021/06/03 08:59:40;;;;;;;3.30;1.70;;;;;;;20.00;35.05;100873.27;1587425;88;21102;-69
2021/06/03 09:02:08;;;;;;;3.87;1.60;;;;;;;20.11;33.36;100866.47;1593680;88;21100;-69
2021/06/03 09:04:40;;;;;;;4.27;1.90;;;;;;;20.21;33.21;100866.74;1599528;89;21045;-69
2021/06/03 09:07:29;;;;;;;4.03;1.60;;;;;;;20.27;32.49;100868.20;1592156;88;21058;-70
2021/06/03 09:10:23;;;;;;;4.03;1.63;;;;;;;20.29;32.34;100864.59;1587863;88;21171;-69
2021/06/03 09:13:25;;;;;;;5.77;1.67;;;;;;;20.31;32.31;100856.95;1587922;89;21024;-70
2021/06/03 09:15:59;;;;;;;4.00;1.53;;;;;;;20.39;33.09;100849.95;1596623;89;21529;-70
2021/06/03 09:18:36;;;;;;;5.53;1.70;;;;;;;20.46;32.90;100853.55;1587032;88;21542;-68
2021/06/03 09:21:18;;;;;;;3.73;2.00;;;;;;;20.45;32.80;100860.89;1590059;88;21162;-69
2021/06/03 09:24:04;;;;;;;2.47;1.50;;;;;;;20.47;32.41;100864.67;1593359;88;21168;-69
2021/06/03 09:26:47;;;;;;;3.70;1.30;;;;;;;20.50;32.40;100867.55;1590502;88;21645;-68
2021/06/03 09:29:17;;;;;;;;;;;;;;;20.46;32.08;100850.84;1598151;88;21118;-69
2021/06/03 09:31:43;;;;;;;4.03;1.50;;;;;;;20.27;32.38;100868.73;1589590;88;20147;-68
2021/06/03 09:34:22;;;;;;;3.67;1.60;;;;;;;20.15;32.52;100859.86;1590142;88;21039;-69
2021/06/03 09:36:59;;;;;;;3.40;1.60;;;;;;;20.25;33.67;100864.20;1589969;88;21165;-70
2021/06/03 09:39:40;;;;;;;3.10;1.80;;;;;;;20.24;33.49;100872.89;1611196;88;21029;-68
2021/06/03 09:42:14;;;;;;;4.00;1.73;;;;;;;20.18;33.56;100855.16;1598746;88;21613;-68
2021/06/03 09:44:51;;;;;;;4.80;1.80;;;;;;;20.12;32.85;100874.84;1595231;89;21020;-68
2021/06/03 09:47:21;;;;;;;3.10;1.80;;;;;;;20.11;33.91;100877.87;1595300;88;21192;-70
2021/06/03 09:49:58;;;;;;;3.43;1.50;;;;;;;20.20;33.81;100886.03;1594302;90;22207;-68
2021/06/03 09:52:29;;;;;;;3.67;1.70;;;;;;;20.22;33.52;100874.32;1590839;88;21085;-68
2021/06/03 09:54:59;;;;;;;3.25;1.70;;;;;;;20.19;33.90;100883.88;1594487;88;21050;-69
2021/06/03 09:57:43;;;;;;;3.10;1.53;;;;;;;20.20;34.22;100879.25;1590042;88;21570;-68
2021/06/03 10:00:18;;;;;;;3.90;1.60;;;;;;;20.24;34.16;100874.25;1608313;88;21253;-69
2021/06/03 10:02:45;;;;;;;4.27;1.80;;;;;;;20.21;33.58;100877.59;1595298;88;21118;-70
2021/06/03 10:05:16;;;;;;;2.93;1.67;;;;;;;20.21;33.55;100880.87;1591015;88;21590;-69
2021/06/03 10:07:57;;;;;;;3.27;1.70;;;;;;;20.34;34.21;100884.02;1591755;88;21480;-68
2021/06/03 10:10:37;;;;;;;2.70;1.57;;;;;;;20.58;33.29;100879.55;1592951;88;21106;-70
2021/06/03 10:13:10;;;;;;;2.42;1.60;;;;;;;20.78;32.79;100884.37;1593440;88;21067;-69
2021/06/03 10:15:39;;;;;;;3.83;1.87;;;;;;;20.96;32.95;100870.80;1598390;88;21012;-70
2021/06/03 10:18:15;;;;;;;3.73;1.70;;;;;;;21.08;32.52;100867.69;1600803;88;21059;-71
2021/06/03 10:20:46;;;;;;;3.60;1.77;;;;;;;21.07;32.39;100870.17;1589590;88;21023;-70
2021/06/03 10:23:28;;;;;;;4.67;1.50;;;;;;;20.94;32.29;100881.20;1590976;88;21629;-68
2021/06/03 10:26:01;;;;;;;5.10;1.80;;;;;;;20.80;32.55;100888.14;1578136;88;21098;-68
2021/06/03 10:28:30;;;;;;;3.63;1.80;;;;;;;20.70;32.48;100881.10;1594774;88;20973;-70
2021/06/03 10:31:01;;;;;;;5.43;1.53;;;;;;;20.65;32.51;100885.31;1589540;88;21021;-69
2021/06/03 10:33:30;;;;;;;2.52;1.50;;;;;;;20.73;33.12;100884.54;1590547;88;21085;-68
2021/06/03 10:36:03;;;;;;;2.17;1.50;;;;;;;20.90;31.78;100872.89;1598701;88;21120;-68
2021/06/03 10:38:29;;;;;;;4.62;1.67;;;;;;;21.01;31.30;100859.23;1585421;88;21083;-69
2021/06/03 10:41:03;;;;;;;2.83;1.77;;;;;;;21.06;31.91;100865.87;1592055;88;21955;-70
2021/06/03 10:43:35;;;;;;;3.80;1.63;;;;;;;21.05;32.97;100868.89;1592731;88;21110;-67
2021/06/03 10:46:05;;;;;;;3.37;1.92;;;;;;;21.00;33.20;100869.86;1586281;88;23259;-69
2021/06/03 10:48:33;;;;;;;6.15;1.75;;;;;;;20.90;33.71;100874.81;1585848;89;21716;-69
2021/06/03 10:51:06;;;;;;;3.07;1.80;;;;;;;20.85;33.22;100886.05;1591383;88;21073;-69
2021/06/03 10:53:35;;;;;;;5.47;1.77;;;;;;;20.78;32.76;100889.80;1589887;88;21172;-69
2021/06/03 10:56:21;;;;;;;3.80;2.00;;;;;;;20.75;33.24;100876.06;1560561;89;21060;-70
2021/06/03 10:58:50;;;;;;;5.10;1.80;;;;;;;20.76;32.45;100875.77;1592925;89;21119;-68
2021/06/03 11:01:19;;;;;;;2.80;1.73;;;;;;;20.78;33.09;100870.80;1593572;88;21040;-69
2021/06/03 11:03:59;;;;;;;4.62;1.40;;;;;;;20.89;32.61;100869.92;1591215;88;21063;-69
2021/06/03 11:06:29;;;;;;;4.83;1.70;;;;;;;20.98;31.52;100867.22;1589814;88;21163;-69
2021/06/03 11:09:06;;;;;;;4.37;1.60;;;;;;;21.01;32.35;100869.30;1594257;88;21088;-70
2021/06/03 11:11:43;;;;;;;3.80;1.67;;;;;;;21.22;32.82;100866.19;1589983;88;21158;-68
2021/06/03 11:14:17;;;;;;;3.47;1.60;;;;;;;21.48;32.03;100857.20;1594213;88;21018;-68
2021/06/03 11:16:54;;;;;;;4.70;1.70;;;;;;;21.52;32.47;100866.33;1584407;88;21158;-69
2021/06/03 11:19:28;;;;;;;2.73;1.60;;;;;;;21.49;32.23;100875.92;1596942;88;21074;-68
2021/06/03 11:22:04;;;;;;;3.27;1.60;;;;;;;21.50;32.26;100871.28;1566283;90;21086;-69
2021/06/03 11:24:38;;;;;;;3.67;1.70;;;;;;;21.53;31.77;100864.64;1599743;88;21142;-69
2021/06/03 11:27:14;;;;;;;4.33;1.63;;;;;;;21.52;32.50;100872.56;1609243;88;21064;-69
2021/06/03 11:29:54;;;;;;;4.97;1.70;;;;;;;21.48;32.04;100873.52;1598842;88;21076;-69
2021/06/03 11:32:34;;;;;;;5.10;1.67;;;;;;;21.43;31.55;100869.06;1602111;88;21123;-69
2021/06/03 11:35:05;;;;;;;4.03;1.67;;;;;;;21.42;31.13;100872.08;1601819;88;21115;-68
2021/06/03 11:37:41;;;;;;;2.27;1.30;;;;;;;21.42;30.89;100861.21;1600483;88;21149;-69
2021/06/03 11:40:23;;;;;;;3.57;1.60;;;;;;;21.44;30.82;100868.49;1608151;88;21140;-69
2021/06/03 11:43:06;;;;;;;3.83;1.50;;;;;;;21.46;30.67;100863.55;1596455;87;21166;-69
2021/06/03 11:45:44;;;;;;;2.93;1.43;;;;;;;21.56;30.83;100857.77;1596088;88;21187;-69
2021/06/03 11:48:19;;;;;;;4.13;1.43;;;;;;;21.62;30.23;100868.70;1611002;88;21482;-69
2021/06/03 11:50:51;;;;;;;3.93;1.73;;;;;;;21.60;30.58;100856.55;1608496;88;21090;-69
2021/06/03 11:53:25;;;;;;;4.05;1.70;;;;;;;21.45;31.23;100850.49;1606514;88;21131;-68
2021/06/03 11:56:14;;;;;;;5.40;1.90;;;;;;;21.41;32.51;100853.63;1594378;87;21511;-69
2021/06/03 11:58:45;;;;;;;4.33;1.60;;;;;;;21.41;32.68;100861.78;1594084;88;21586;-69
2021/06/03 12:01:24;;;;;;;4.17;1.77;;;;;;;21.42;32.59;100859.31;1586216;89;21443;-69
2021/06/03 12:04:11;;;;;;;3.47;1.77;;;;;;;21.41;32.53;100860.98;1589763;88;21258;-70
2021/06/03 12:06:45;;;;;;;4.60;1.90;;;;;;;21.49;32.97;100865.05;1590118;88;21000;-69
2021/06/03 12:09:29;;;;;;;3.87;1.50;;;;;;;21.67;32.16;100856.28;1598207;88;21038;-70
2021/06/03 12:12:03;;;;;;;6.57;1.90;;;;;;;21.73;32.06;100858.27;1559745;90;21188;-69
2021/06/03 12:14:34;;;;;;;5.07;1.50;;;;;;;21.76;31.35;100853.55;1592829;88;21134;-71
2021/06/03 12:17:04;;;;;;;3.37;1.50;;;;;;;21.88;31.53;100850.95;1589308;88;21098;-68
2021/06/03 12:19:45;;;;;;;2.50;1.60;;;;;;;21.98;31.42;100859.28;1599564;87;20997;-70
2021/06/03 12:22:17;;;;;;;3.50;1.40;;;;;;;21.99;30.93;100853.53;1603870;88;21089;-69
2021/06/03 12:24:49;;;;;;;3.75;1.55;;;;;;;22.04;30.93;100859.91;1585794;88;21090;-69
2021/06/03 12:27:35;;;;;;;3.63;1.53;;;;;;;22.15;30.68;100857.08;1594954;88;21718;-70
2021/06/03 12:30:22;;;;;;;5.70;2.17;;;;;;;22.17;29.70;100848.83;1607802;88;21042;-72
2021/06/03 12:33:12;;;;;;;3.47;1.53;;;;;;;22.11;30.15;100850.13;1588873;88;21697;-70
2021/06/03 12:36:02;;;;;;;2.93;1.50;;;;;;;22.02;30.43;100837.13;1595184;88;21151;-70
2021/06/03 12:38:48;;;;;;;4.53;1.73;;;;;;;21.83;31.13;100846.25;1600667;88;21164;-69
2021/06/03 12:41:34;;;;;;;3.83;2.00;;;;;;;21.51;32.59;100853.28;1589015;86;21086;-69
2021/06/03 12:44:15;;;;;;;5.73;2.10;;;;;;;21.31;32.68;100853.37;1597004;89;21084;-69
2021/06/03 12:46:52;;;;;;;4.87;1.70;;;;;;;21.26;32.87;100850.05;1591305;88;21067;-70
2021/06/03 12:49:29;;;;;;;3.07;1.60;;;;;;;21.31;31.88;100856.65;1598380;88;21571;-69
2021/06/03 12:52:06;;;;;;;2.97;1.87;;;;;;;21.37;32.24;100858.67;1593481;88;21156;-70
2021/06/03 12:54:46;;;;;;;4.37;1.50;;;;;;;21.51;32.02;100847.84;1590060;88;21091;-68
2021/06/03 12:57:16;;;;;;;4.13;1.57;;;;;;;21.71;31.29;100853.14;1591757;88;21056;-68
2021/06/03 12:59:45;;;;;;;3.00;1.70;;;;;;;21.83;30.92;100843.53;1607781;88;21095;-68
2021/06/03 13:02:15;;;;;;;4.47;1.57;;;;;;;21.82;31.08;100860.98;1605737;88;21056;-69
2021/06/03 13:04:49;;;;;;;1.93;1.40;;;;;;;21.76;30.52;100859.78;1591411;88;22006;-70
2021/06/03 13:07:29;;;;;;;4.10;1.50;;;;;;;21.75;31.02;100862.27;1588882;87;21231;-69
2021/06/03 13:10:02;;;;;;;5.23;1.87;;;;;;;21.87;31.42;100851.27;1603162;88;21583;-69
2021/06/03 13:12:31;;;;;;;3.57;1.50;;;;;;;22.08;31.35;100849.97;1598111;88;21099;-69
2021/06/03 13:14:59;;;;;;;4.03;1.67;;;;;;;22.24;31.26;100847.78;1594970;88;21689;-69
2021/06/03 13:17:36;;;;;;;4.33;1.70;;;;;;;22.27;31.14;100853.10;1596189;88;22043;-68
2021/06/03 13:20:12;;;;;;;4.67;1.60;;;;;;;22.06;31.43;100859.83;1613917;87;21609;-69
2021/06/03 13:22:42;;;;;;;4.73;1.80;;;;;;;21.82;31.54;100862.33;1607879;88;21516;-68
2021/06/03 13:25:10;;;;;;;3.43;1.70;;;;;;;21.62;31.75;100861.09;1558237;88;21100;-69
2021/06/03 13:27:46;;;;;;;4.13;1.90;;;;;;;21.55;32.18;100853.42;1599539;88;21104;-69
2021/06/03 13:30:19;;;;;;;7.83;2.00;;;;;;;21.61;31.96;100867.09;1586937;88;21595;-69
2021/06/03 13:32:49;;;;;;;4.23;1.73;;;;;;;21.73;31.32;100848.19;1590965;88;21252;-68
2021/06/03 13:35:22;;;;;;;4.90;1.60;;;;;;;21.90;31.23;100845.17;1595717;88;21124;-69
2021/06/03 13:37:51;;;;;;;5.03;1.60;;;;;;;22.08;31.62;100843.98;1592383;88;21115;-69
2021/06/03 13:40:22;;;;;;;4.00;1.80;;;;;;;22.26;31.60;100848.00;1599249;89;21166;-69
2021/06/03 13:42:58;;;;;;;4.13;1.60;;;;;;;22.35;29.91;100853.63;1591346;88;21495;-70
2021/06/03 13:45:37;;;;;;;3.27;1.53;;;;;;;22.41;30.57;100845.52;1595604;88;20985;-69
2021/06/03 13:48:23;;;;;;;8.60;1.80;;;;;;;22.56;30.14;100845.48;1595092;88;21588;-69
2021/06/03 13:51:18;;;;;;;4.03;1.80;;;;;;;22.40;30.74;100842.53;1610302;87;21060;-68
2021/06/03 13:53:48;;;;;;;4.13;1.80;;;;;;;22.15;30.77;100861.98;1594457;88;21107;-68
2021/06/03 13:56:20;;;;;;;4.57;1.80;;;;;;;21.88;31.10;100863.73;1597375;88;21121;-68
2021/06/03 13:59:01;;;;;;;5.33;1.70;;;;;;;21.68;31.66;100857.87;1596388;88;21044;-68
2021/06/03 14:01:36;;;;;;;6.17;1.67;;;;;;;21.61;31.37;100864.37;1585924;88;21081;-67
2021/06/03 14:04:20;;;;;;;4.20;1.60;;;;;;;21.52;31.65;100874.48;1586905;88;20999;-69
2021/06/03 14:06:52;;;;;;;3.07;1.70;;;;;;;21.48;31.87;100877.59;1560178;90;21652;-69
2021/06/03 14:09:30;;;;;;;4.90;1.80;;;;;;;21.42;31.70;100869.36;1594389;88;21243;-69
2021/06/03 14:12:25;;;;;;;4.93;1.63;;;;;;;21.44;32.14;100874.72;1604742;88;21578;-69
2021/06/03 14:15:06;;;;;;;2.97;1.57;;;;;;;21.62;32.24;100864.63;1594945;88;21089;-69
2021/06/03 14:17:34;;;;;;;3.17;1.80;;;;;;;21.83;32.22;100866.64;1590581;88;21107;-68
2021/06/03 14:20:13;;;;;;;4.60;1.80;;;;;;;21.90;31.56;100870.44;1598271;88;21138;-69
2021/06/03 14:22:38;;;;;;;6.77;1.50;;;;;;;21.90;31.55;100879.96;1590844;88;21150;-69
2021/06/03 14:25:08;;;;;;;4.63;1.73;;;;;;;21.93;31.85;100874.44;1592511;88;21076;-69
2021/06/03 14:27:44;;;;;;;2.93;1.53;;;;;;;22.00;31.21;100876.09;1596380;88;21247;-68
2021/06/03 14:30:22;;;;;;;4.23;1.80;;;;;;;21.97;31.10;100874.02;1595650;88;21625;-68
2021/06/03 14:32:56;;;;;;;3.03;1.60;;;;;;;21.89;31.27;100872.94;1590920;88;21099;-68
2021/06/03 14:35:48;;;;;;;2.60;1.50;;;;;;;21.90;31.57;100880.53;1585106;88;21239;-69
2021/06/03 14:38:20;;;;;;;5.55;1.90;;;;;;;21.88;31.98;100870.52;1583488;88;21285;-69
2021/06/03 14:40:56;;;;;;;3.50;1.77;;;;;;;21.76;31.78;100880.17;1585898;88;21562;-70
2021/06/03 14:43:35;;;;;;;4.57;1.70;;;;;;;21.66;31.94;100886.52;1588506;88;21094;-69
2021/06/03 14:46:07;;;;;;;4.67;1.63;;;;;;;21.56;32.20;100886.30;1593153;89;21221;-68
2021/06/03 14:48:36;;;;;;;3.70;1.70;;;;;;;21.47;31.62;100882.23;1591830;88;21168;-68
2021/06/03 14:51:11;;;;;;;3.77;1.83;;;;;;;21.25;31.89;100879.66;1593477;88;20995;-68
2021/06/03 14:53:39;;;;;;;3.13;1.70;;;;;;;21.04;32.58;100891.18;1590415;88;21067;-68
2021/06/03 14:56:07;;;;;;;2.97;1.60;;;;;;;20.91;32.82;100894.05;1594182;89;21020;-67
2021/06/03 14:58:36;;;;;;;4.23;2.00;;;;;;;20.83;33.43;100893.73;1588698;88;21111;-69
2021/06/03 15:01:05;;;;;;;4.40;1.80;;;;;;;20.89;33.48;100898.99;1590469;88;21020;-68
2021/06/03 15:03:32;;;;;;;4.93;1.70;;;;;;;21.10;33.32;100900.54;1596904;88;21098;-69
2021/06/03 15:05:59;;;;;;;4.60;1.70;;;;;;;21.38;32.46;100903.74;1594173;90;21052;-69
2021/06/03 15:08:26;;;;;;;3.67;1.40;;;;;;;21.53;31.70;100904.61;1594303;88;21595;-68
2021/06/03 15:10:54;;;;;;;3.57;1.90;;;;;;;21.57;31.41;100906.12;1593273;88;21150;-69
2021/06/03 15:13:28;;;;;;;3.73;1.63;;;;;;;21.55;31.58;100903.71;1586606;88;21901;-69
2021/06/03 15:15:55;;;;;;;4.27;1.80;;;;;;;21.49;31.84;100914.54;1594271;89;21073;-69
2021/06/03 15:18:22;;;;;;;2.93;1.90;;;;;;;21.41;32.17;100904.45;1593943;88;21101;-68
2021/06/03 15:20:52;;;;;;;5.00;1.80;;;;;;;21.34;32.50;100913.62;1574056;89;21220;-69
2021/06/03 15:23:22;;;;;;;5.07;1.70;;;;;;;21.26;32.86;100913.32;1597003;88;21115;-70
2021/06/03 15:25:48;;;;;;;4.00;1.93;;;;;;;21.29;33.02;100911.33;1590904;88;21127;-68
2021/06/03 15:28:16;;;;;;;2.63;1.60;;;;;;;21.68;32.83;100909.52;1587512;88;21136;-69
2021/06/03 15:30:45;;;;;;;5.20;1.77;;;;;;;22.21;31.16;100914.27;1593713;88;21642;-68
2021/06/03 15:33:13;;;;;;;2.97;1.60;;;;;;;22.28;30.77;100924.11;1592715;88;21071;-68
2021/06/03 15:35:45;;;;;;;3.60;1.60;;;;;;;21.95;31.48;100917.08;1602013;88;21056;-68
2021/06/03 15:38:14;;;;;;;4.37;1.80;;;;;;;21.55;32.23;100922.73;1587694;88;21684;-69
2021/06/03 15:40:46;;;;;;;3.10;1.53;;;;;;;21.15;33.25;100927.53;1588152;88;21592;-68
2021/06/03 15:43:17;;;;;;;4.97;1.73;;;;;;;20.96;34.18;100934.08;1585810;89;21086;-69
2021/06/03 15:45:46;;;;;;;4.22;1.85;;;;;;;20.83;34.44;100929.03;1590069;88;22488;-69
2021/06/03 15:48:14;;;;;;;5.73;1.90;;;;;;;20.72;35.07;100945.36;1585829;88;21141;-70
2021/06/03 15:50:41;;;;;;;3.27;1.80;;;;;;;20.65;35.36;100946.38;1592785;88;21195;-69
2021/06/03 15:53:09;;;;;;;4.40;1.60;;;;;;;20.59;35.45;100944.92;1601245;88;21555;-69
2021/06/03 15:55:36;;;;;;;4.43;2.13;;;;;;;20.53;35.78;100940.22;1604205;88;22246;-69
2021/06/03 15:58:03;;;;;;;4.40;2.03;;;;;;;20.49;35.89;100943.26;1594940;88;21129;-68
2021/06/03 16:00:31;;;;;;;4.30;2.20;;;;;;;20.43;35.64;100939.09;1591769;88;21697;-69
2021/06/03 16:02:59;;;;;;;4.60;2.00;;;;;;;20.37;35.72;100942.52;1598389;89;21127;-69
2021/06/03 16:05:25;;;;;;;2.73;1.70;;;;;;;20.34;35.89;100948.56;1590996;88;21075;-68
2021/06/03 16:07:53;;;;;;;4.97;2.00;;;;;;;20.30;36.22;100944.06;1587684;88;21043;-69
2021/06/03 16:10:22;;;;;;;4.63;1.90;;;;;;;20.25;36.31;100942.86;1593122;88;21090;-68
2021/06/03 16:12:51;;;;;;;4.80;2.20;;;;;;;20.20;36.43;100942.42;1592879;88;21151;-69
2021/06/03 16:15:23;;;;;;;4.23;2.00;;;;;;;20.15;36.38;100938.50;1592108;89;21157;-69
2021/06/03 16:17:49;;;;;;;3.83;1.92;;;;;;;20.11;36.62;100933.47;1588259;88;21023;-68
2021/06/03 16:20:18;;;;;;;4.07;1.93;;;;;;;20.05;36.41;100927.93;1590596;88;21613;-68
2021/06/03 16:22:47;;;;;;;3.87;1.80;;;;;;;19.99;36.27;100942.73;1601729;88;21035;-69
2021/06/03 16:25:14;;;;;;;4.57;1.87;;;;;;;19.91;35.86;100942.37;1612451;88;21603;-68
2021/06/03 16:27:43;;;;;;;3.43;1.67;;;;;;;19.84;36.14;100939.84;1605063;88;21141;-68
2021/06/03 16:30:20;;;;;;;3.83;2.10;;;;;;;19.79;36.39;100936.71;1598761;87;21659;-68
2021/06/03 16:32:54;;;;;;;4.50;2.00;;;;;;;19.78;36.43;100943.25;1604673;88;21058;-70
2021/06/03 16:35:20;;;;;;;3.37;1.87;;;;;;;19.75;36.50;100935.73;1558212;90;21114;-70
2021/06/03 16:37:47;;;;;;;3.93;1.80;;;;;;;19.70;36.61;100941.27;1542059;92;21585;-69
2021/06/03 16:40:15;;;;;;;3.97;2.00;;;;;;;19.64;36.62;100940.62;1539377;91;21256;-68
2021/06/03 16:42:42;;;;;;;3.07;1.80;;;;;;;19.64;36.78;100941.14;1529458;91;21094;-68
2021/06/03 16:45:13;;;;;;;4.40;2.00;;;;;;;19.59;37.02;100946.67;1593223;88;21579;-69
2021/06/03 16:50:08;;;;;;;4.53;2.10;;;;;;;19.51;37.18;100952.81;1594160;88;21303;-69
2021/06/03 16:52:35;;;;;;;3.27;1.90;;;;;;;19.42;37.58;100948.14;1587350;88;21134;-69
2021/06/03 16:55:04;;;;;;;3.90;2.10;;;;;;;19.36;37.67;100953.98;1594066;88;21110;-68
2021/06/03 16:57:31;;;;;;;4.57;2.17;;;;;;;19.29;37.92;100954.41;1606020;88;21080;-69
2021/06/03 16:59:57;;;;;;;3.57;2.23;;;;;;;19.23;38.26;100952.92;1593287;88;21116;-71
2021/06/03 17:02:24;;;;;;;6.40;2.10;;;;;;;19.17;38.45;100956.84;1593197;88;21153;-68
2021/06/03 17:04:51;;;;;;;4.17;2.10;;;;;;;19.13;38.63;100968.04;1589751;89;21228;-68
2021/06/03 17:07:19;;;;;;;4.87;1.90;;;;;;;19.08;38.88;100962.16;1596114;89;21108;-69
2021/06/03 17:09:46;;;;;;;5.27;2.27;;;;;;;19.02;39.07;100970.17;1596017;88;21073;-68
2021/06/03 17:12:13;;;;;;;4.63;1.80;;;;;;;18.96;38.82;100965.97;1561781;90;21666;-70
2021/06/03 17:14:41;;;;;;;6.03;2.30;;;;;;;18.91;39.22;100970.92;1594135;88;21071;-69
2021/06/03 17:17:07;;;;;;;3.50;2.23;;;;;;;18.89;39.32;100969.09;1597710;89;21156;-69
2021/06/03 17:19:35;;;;;;;4.77;2.20;;;;;;;18.84;39.39;100977.30;1594253;88;21125;-69
2021/06/03 17:22:02;;;;;;;5.20;2.30;;;;;;;18.81;39.48;100977.10;1593600;88;21590;-69
2021/06/03 17:24:29;;;;;;;5.40;2.73;;;;;;;18.77;39.51;100976.91;1596874;89;21119;-68
2021/06/03 17:26:58;;;;;;;4.47;2.30;;;;;;;18.73;39.69;100970.50;1586147;88;21087;-68
2021/06/03 17:29:25;;;;;;;4.07;2.43;;;;;;;18.70;39.87;100979.19;1585299;89;21159;-69